Time;durP1;ratioP1;P1;durP2;ratioP2;P2;SDS_P1;SDS_P2;PMS_P1;PMS_P2;Temp;Humidity;BMP_temperature;BMP_pressure;BME280_temperature;BME280_humidity;BME280_pressure;Samples;Min_cycle;Max_cycle;Signal;HPM_P1;HPM_P2
2022/10/10 00:00:04;;;;;;;7.10;2.00;;;;;;;7.87;92.35;100191.18;106759;1302;22396;-50
2022/10/10 00:02:30;;;;;;;7.10;2.20;;;;;;;7.86;92.36;100190.48;106591;1302;139028;-50
2022/10/10 00:04:57;;;;;;;6.60;1.80;;;;;;;7.80;92.44;100185.73;106757;1303;22136;-51
2022/10/10 00:07:24;;;;;;;;;;;;;;;7.80;92.62;100196.52;106788;1300;22405;-51
2022/10/10 00:09:50;;;;;;;6.40;1.50;;;;;;;7.76;92.77;100187.53;106690;1302;125637;-51
2022/10/10 00:12:17;;;;;;;4.90;1.70;;;;;;;7.78;92.81;100194.08;106811;1302;22333;-51
2022/10/10 00:14:44;;;;;;;3.60;1.50;;;;;;;7.80;92.78;100192.25;106653;1303;137961;-51
2022/10/10 00:17:10;;;;;;;;;;;;;;;7.81;92.74;100194.94;106506;1288;23259;-51
2022/10/10 00:19:37;;;;;;;4.70;1.70;;;;;;;7.82;92.64;100187.47;106752;1302;22169;-51
2022/10/10 00:22:04;;;;;;;6.60;2.10;;;;;;;7.79;92.62;100199.51;106630;1302;139276;-51
2022/10/10 00:24:30;;;;;;;;;;;;;;;7.77;92.62;100200.71;106792;1296;22423;-52
2022/10/10 00:26:57;;;;;;;3.90;1.80;;;;;;;7.74;92.68;100192.45;106654;1302;124976;-52
2022/10/10 00:29:24;;;;;;;3.50;1.50;;;;;;;7.76;92.75;100196.98;106755;1302;22246;-51
2022/10/10 00:31:50;;;;;;;;;;;;;;;7.75;92.63;100202.95;106642;1294;139655;-52
2022/10/10 00:34:17;;;;;;;3.80;2.00;;;;;;;7.74;92.63;100205.12;106777;1302;23371;-51
2022/10/10 00:36:44;;;;;;;2.50;1.70;;;;;;;7.74;92.59;100203.99;106755;1302;22136;-51
2022/10/10 00:39:10;;;;;;;;;;;;;;;7.72;92.48;100200.26;106559;1302;139517;-50
2022/10/10 00:41:37;;;;;;;4.40;2.10;;;;;;;7.72;92.63;100200.91;102245;1278;22494;-51
2022/10/10 00:44:12;;;;;;;5.70;2.10;;;;;;;7.73;92.61;100203.05;102077;1310;139425;-51
2022/10/10 00:46:39;;;;;;;4.30;1.80;;;;;;;7.70;92.46;100201.48;102257;1295;22479;-50
2022/10/10 00:49:16;;;;;;;;;;;;;;;7.69;92.36;100203.45;102311;1289;22483;-51
2022/10/10 00:51:45;;;;;;;2.90;1.70;;;;;;;7.66;92.34;100207.48;102161;1281;125316;-51
2022/10/10 00:54:12;;;;;;;3.00;1.30;;;;;;;7.62;92.25;100201.88;106507;1310;22240;-51
2022/10/10 00:56:47;;;;;;;2.80;1.70;;;;;;;7.64;92.26;100209.65;106632;1296;138743;-51
2022/10/10 00:59:14;;;;;;;9.40;1.50;;;;;;;7.62;92.23;100213.08;106762;1302;22126;-51
2022/10/10 01:01:41;;;;;;;3.90;1.40;;;;;;;7.59;92.23;100211.27;106761;1296;22168;-51
2022/10/10 01:04:26;;;;;;;;;;;;;;;7.61;92.15;100213.64;106631;1295;138141;-51
2022/10/10 01:06:53;;;;;;;5.60;1.90;;;;;;;7.60;91.99;100214.89;106819;1285;22155;-51
2022/10/10 01:09:20;;;;;;;6.40;1.70;;;;;;;7.59;92.11;100209.39;106649;1302;138968;-51
2022/10/10 01:12:03;;;;;;;2.60;1.60;;;;;;;7.59;92.00;100211.77;106740;1302;23331;-51
2022/10/10 01:14:51;;;;;;;6.50;1.70;;;;;;;7.57;91.99;100210.36;106502;1303;138417;-51
2022/10/10 01:17:19;;;;;;;2.40;1.40;;;;;;;7.57;91.84;100215.16;106819;1302;22237;-51
2022/10/10 01:19:58;;;;;;;4.60;1.70;;;;;;;7.55;91.67;100219.26;106590;1302;137971;-51
2022/10/10 01:22:46;;;;;;;8.00;3.40;;;;;;;7.53;91.64;100220.06;106637;1303;22189;-50
2022/10/10 01:25:17;;;;;;;3.30;1.90;;;;;;;7.51;91.74;100219.29;106777;1294;22126;-51
2022/10/10 01:27:51;;;;;;;13.60;2.60;;;;;;;7.49;91.68;100215.12;106606;1296;139036;-50
2022/10/10 01:30:21;;;;;;;2.10;1.40;;;;;;;7.47;91.74;100217.71;106702;1303;23430;-51
2022/10/10 01:32:53;;;;;;;4.90;1.50;;;;;;;7.46;91.71;100223.71;106664;1302;138434;-50
2022/10/10 01:35:42;;;;;;;6.60;1.70;;;;;;;7.45;91.67;100222.05;106728;1303;22169;-51
2022/10/10 01:38:39;;;;;;;4.20;1.40;;;;;;;7.41;91.52;100229.46;106655;1302;138329;-50
2022/10/10 01:41:09;;;;;;;5.30;1.30;;;;;;;7.37;91.68;100231.27;106460;1306;22284;-51
2022/10/10 01:43:36;;;;;;;6.60;2.20;;;;;;;7.34;91.57;100237.20;106403;1306;22152;-52
2022/10/10 01:46:09;;;;;;;;;;;;;;;7.31;91.77;100235.92;106372;1306;139303;-52
2022/10/10 01:48:36;;;;;;;3.60;1.80;;;;;;;7.29;91.71;100235.60;106427;1307;22345;-52
2022/10/10 01:51:14;;;;;;;2.80;1.50;;;;;;;7.25;91.87;100240.00;106304;1306;138985;-52
2022/10/10 01:53:49;;;;;;;4.80;1.80;;;;;;;7.20;91.93;100239.98;106466;1306;23419;-54
2022/10/10 01:56:36;;;;;;;8.60;1.80;;;;;;;7.17;91.89;100243.70;106230;1305;138188;-52
2022/10/10 01:59:19;;;;;;;2.50;1.40;;;;;;;7.16;92.22;100243.78;106428;1306;22244;-52
2022/10/10 02:01:54;;;;;;;3.60;2.00;;;;;;;7.16;92.21;100249.12;106281;1306;138963;-53
2022/10/10 02:04:37;;;;;;;3.80;1.90;;;;;;;7.11;92.11;100252.42;106411;1305;22182;-52
2022/10/10 02:07:08;;;;;;;7.70;2.10;;;;;;;7.08;92.27;100251.94;106392;1291;22248;-52
2022/10/10 02:09:37;;;;;;;7.80;1.90;;;;;;;7.03;92.51;100252.70;106366;1306;139565;-52
2022/10/10 02:12:04;;;;;;;5.20;1.70;;;;;;;6.98;92.68;100258.47;106358;1300;22178;-52
2022/10/10 02:14:33;;;;;;;4.30;1.50;;;;;;;6.96;92.67;100260.17;106356;1300;138491;-52
2022/10/10 02:16:59;;;;;;;3.80;1.80;;;;;;;6.94;92.88;100259.89;106433;1306;22177;-52
2022/10/10 02:19:26;;;;;;;2.40;1.50;;;;;;;6.91;92.95;100260.94;106789;1302;22386;-52
2022/10/10 02:21:53;;;;;;;3.50;1.90;;;;;;;6.86;92.87;100260.05;106575;1297;137928;-52
2022/10/10 02:24:20;;;;;;;;;;;;;;;6.87;93.14;100264.74;106793;1301;22399;-52
2022/10/10 02:26:58;;;;;;;2.40;1.60;;;;;;;6.84;93.21;100268.58;106739;1302;125231;-52
2022/10/10 02:29:27;;;;;;;10.60;3.60;;;;;;;6.76;93.15;100263.73;106685;1302;22189;-52
2022/10/10 02:32:22;;;;;;;5.20;1.80;;;;;;;6.73;93.39;100275.14;106551;1303;138596;-52
2022/10/10 02:34:50;;;;;;;4.40;2.00;;;;;;;6.68;93.62;100275.44;106394;1308;22201;-52
2022/10/10 02:37:17;;;;;;;6.40;2.10;;;;;;;6.66;93.72;100272.02;106199;1293;22279;-52
2022/10/10 02:39:46;;;;;;;5.30;2.00;;;;;;;6.64;93.99;100277.82;106148;1309;138609;-49
2022/10/10 02:42:14;;;;;;;2.50;1.70;;;;;;;6.60;93.85;100271.90;106334;1300;22160;-49
2022/10/10 02:44:41;;;;;;;6.60;2.20;;;;;;;6.59;93.93;100272.06;106226;1308;140084;-49
2022/10/10 02:47:07;;;;;;;2.50;1.50;;;;;;;6.58;94.10;100273.27;106244;1308;22255;-47
2022/10/10 02:49:34;;;;;;;4.70;2.30;;;;;;;6.57;94.06;100273.36;106373;1308;22158;-50
2022/10/10 02:52:01;;;;;;;7.50;2.50;;;;;;;6.53;94.15;100275.77;106234;1302;137834;-50
2022/10/10 02:54:28;;;;;;;;;;;;;;;6.50;94.27;100277.49;106422;1308;22373;-50
2022/10/10 02:56:54;;;;;;;6.50;1.80;;;;;;;6.48;94.40;100280.02;106307;1294;128018;-49
2022/10/10 02:59:21;;;;;;;;;;;;;;;6.45;94.29;100276.82;105751;1296;895661;-50
2022/10/10 03:03:08;;;;;;;5.50;1.90;;;;;;;6.44;94.22;100279.11;99313;1323;544792;-47
2022/10/10 03:05:35;;;;;;;4.60;1.90;;;;;;;6.38;94.50;100284.52;101000;1323;22556;-47
2022/10/10 03:08:01;;;;;;;;;;;;;;;6.37;94.73;100285.02;100843;1317;138725;-48
2022/10/10 03:10:32;;;;;;;5.60;2.50;;;;;;;6.35;94.41;100282.95;101017;1318;22514;-47
2022/10/10 03:12:59;;;;;;;;;;;;;;;6.34;94.47;100281.71;101084;1294;23406;-46
2022/10/10 03:15:25;;;;;;;5.20;2.10;;;;;;;6.32;94.45;100282.73;100902;1323;123895;-47
2022/10/10 03:17:52;;;;;;;2.70;1.90;;;;;;;6.29;94.70;100289.23;100545;1322;939573;-47
2022/10/10 03:20:19;;;;;;;;;;;;;;;6.27;94.88;100293.55;101104;1320;137936;-47
2022/10/10 03:22:45;;;;;;;3.90;1.80;;;;;;;6.25;94.46;100298.33;101192;1307;25396;-47
2022/10/10 03:25:12;;;;;;;4.00;1.70;;;;;;;6.23;94.65;100295.50;101200;1322;22851;-47
2022/10/10 03:27:39;;;;;;;5.00;2.10;;;;;;;6.21;94.54;100296.64;101085;1298;137675;-47
2022/10/10 03:30:06;;;;;;;4.30;1.80;;;;;;;6.15;94.61;100293.04;101631;1311;22635;-47
2022/10/10 03:32:33;;;;;;;5.20;2.60;;;;;;;6.17;94.81;100298.20;105716;1319;139857;-47
2022/10/10 03:35:00;;;;;;;3.40;1.80;;;;;;;6.17;94.83;100294.24;106222;1310;22145;-48
2022/10/10 03:37:26;;;;;;;3.90;1.90;;;;;;;6.17;94.81;100299.70;106240;1310;22142;-47
2022/10/10 03:39:53;;;;;;;;;;;;;;;6.17;94.86;100303.06;106189;1312;137600;-50
2022/10/10 03:42:20;;;;;;;3.20;1.60;;;;;;;6.19;94.96;100308.73;106223;1312;22174;-50
2022/10/10 03:44:46;;;;;;;7.40;1.80;;;;;;;6.20;94.93;100307.89;106403;1305;138033;-50
2022/10/10 03:47:13;;;;;;;4.00;1.90;;;;;;;6.19;94.98;100309.55;106514;1305;22299;-50
2022/10/10 03:49:40;;;;;;;;;;;;;;;6.19;94.98;100309.48;106519;1298;22425;-50
2022/10/10 03:52:06;;;;;;;4.20;1.70;;;;;;;6.18;94.80;100313.35;106435;1306;124465;-50
2022/10/10 03:54:33;;;;;;;6.60;2.40;;;;;;;6.17;94.66;100309.19;106533;1305;22498;-50
2022/10/10 03:57:00;;;;;;;3.80;2.20;;;;;;;6.16;94.82;100309.02;106375;1305;137680;-50
2022/10/10 03:59:26;;;;;;;4.40;2.30;;;;;;;6.13;94.91;100314.51;106456;1296;22165;-51
2022/10/10 04:01:53;;;;;;;4.50;1.90;;;;;;;6.08;94.96;100313.51;106348;1309;139169;-51
2022/10/10 04:04:20;;;;;;;8.30;3.10;;;;;;;6.05;95.19;100310.83;106471;1296;22226;-50
2022/10/10 04:06:46;;;;;;;3.60;1.90;;;;;;;6.03;95.07;100316.45;106470;1297;22247;-51
2022/10/10 04:09:13;;;;;;;5.80;2.00;;;;;;;6.03;95.22;100322.43;106351;1306;137559;-50
2022/10/10 04:11:40;;;;;;;3.20;2.00;;;;;;;6.02;95.10;100325.60;106472;1309;22149;-50
2022/10/10 04:14:06;;;;;;;5.50;1.90;;;;;;;6.02;95.11;100326.48;106351;1306;138138;-51
2022/10/10 04:16:33;;;;;;;3.90;2.10;;;;;;;6.02;95.09;100331.55;106462;1300;22169;-51
2022/10/10 04:19:00;;;;;;;;;;;;;;;6.04;95.14;100329.05;106477;1291;22352;-51
2022/10/10 04:21:26;;;;;;;11.30;3.00;;;;;;;6.03;95.25;100329.42;106336;1306;125635;-51
2022/10/10 04:23:53;;;;;;;3.70;1.80;;;;;;;6.00;94.90;100329.76;106487;1300;23386;-51
2022/10/10 04:26:20;;;;;;;;;;;;;;;5.99;95.07;100328.67;106405;1297;137949;-51
2022/10/10 04:28:47;;;;;;;6.20;1.90;;;;;;;6.00;95.28;100334.37;106414;1309;22540;-51
2022/10/10 04:31:13;;;;;;;;;;;;;;;6.00;95.38;100339.61;106471;1309;22370;-51
2022/10/10 04:33:40;;;;;;;3.00;1.80;;;;;;;6.00;95.49;100335.42;106372;1305;126467;-51
2022/10/10 04:36:07;;;;;;;2.70;1.90;;;;;;;6.01;95.29;100334.54;106441;1306;22140;-50
2022/10/10 04:38:33;;;;;;;;;;;;;;;6.02;95.36;100341.12;106364;1298;141606;-50
2022/10/10 04:41:00;;;;;;;5.50;1.80;;;;;;;6.03;95.51;100344.83;106438;1309;23045;-50
2022/10/10 04:43:27;;;;;;;5.00;2.50;;;;;;;6.05;95.41;100342.12;106448;1309;22210;-50
2022/10/10 04:45:56;;;;;;;2.70;1.60;;;;;;;6.03;95.64;100343.74;106346;1309;138776;-50
2022/10/10 04:48:23;;;;;;;4.20;2.30;;;;;;;6.02;95.53;100346.36;106445;1309;22125;-50
2022/10/10 04:50:54;;;;;;;4.80;2.50;;;;;;;6.03;95.50;100350.52;106345;1305;138594;-51
2022/10/10 04:53:20;;;;;;;4.70;2.40;;;;;;;6.02;95.70;100352.36;106479;1306;22115;-50
2022/10/10 04:55:47;;;;;;;5.60;2.60;;;;;;;5.99;95.78;100353.64;106363;1306;137715;-50
2022/10/10 04:58:14;;;;;;;;;;;;;;;6.02;95.89;100355.39;106475;1309;22432;-50
2022/10/10 05:00:41;;;;;;;11.10;3.10;;;;;;;6.03;95.79;100358.35;106450;1306;22289;-52
2022/10/10 05:03:09;;;;;;;4.00;2.30;;;;;;;6.05;96.06;100361.44;106314;1308;137805;-51
2022/10/10 05:05:36;;;;;;;4.50;2.60;;;;;;;6.07;95.99;100357.71;106367;1308;22203;-50
2022/10/10 05:08:02;;;;;;;5.00;2.20;;;;;;;6.09;96.00;100361.37;106362;1309;139071;-50
2022/10/10 05:10:29;;;;;;;3.90;2.30;;;;;;;6.10;95.97;100359.75;106394;1308;22119;-50
2022/10/10 05:12:56;;;;;;;7.00;2.50;;;;;;;6.11;95.98;100362.75;106461;1307;23142;-50
2022/10/10 05:15:23;;;;;;;6.50;2.50;;;;;;;6.12;96.08;100362.91;106321;1294;137559;-50
2022/10/10 05:17:50;;;;;;;5.30;2.10;;;;;;;6.15;96.04;100368.41;106403;1308;22129;-50
2022/10/10 05:20:17;;;;;;;6.10;2.20;;;;;;;6.19;96.27;100371.13;106297;1308;139093;-50
2022/10/10 05:22:43;;;;;;;;;;;;;;;6.24;96.11;100370.44;106350;1309;22385;-50
2022/10/10 05:25:10;;;;;;;3.80;2.50;;;;;;;6.28;95.85;100373.40;106401;1308;22263;-51
2022/10/10 05:27:37;;;;;;;7.30;2.40;;;;;;;6.28;95.84;100376.36;106286;1308;137760;-50
2022/10/10 05:30:04;;;;;;;44.00;23.50;;;;;;;6.29;95.87;100379.31;106410;1308;22153;-50
2022/10/10 05:32:31;;;;;;;5.20;3.30;;;;;;;6.31;95.78;100377.66;106347;1307;138589;-50
2022/10/10 05:34:57;;;;;;;15.60;8.10;;;;;;;6.34;95.82;100377.58;106445;1306;22211;-51
2022/10/10 05:37:24;;;;;;;5.90;2.70;;;;;;;6.38;95.87;100378.09;106470;1308;22249;-51
2022/10/10 05:39:51;;;;;;;7.20;2.30;;;;;;;6.43;95.94;100380.59;106327;1308;140044;-50
2022/10/10 05:42:20;;;;;;;4.20;2.10;;;;;;;6.48;95.94;100381.17;106426;1306;22187;-50
2022/10/10 05:44:47;;;;;;;5.60;2.10;;;;;;;6.54;95.82;100386.73;106349;1299;139317;-50
2022/10/10 05:47:14;;;;;;;4.40;2.30;;;;;;;6.59;95.49;100385.98;106399;1308;23005;-50
2022/10/10 05:49:40;;;;;;;7.50;2.30;;;;;;;6.64;95.39;100386.30;106387;1299;22256;-50
2022/10/10 05:52:07;;;;;;;3.70;2.40;;;;;;;6.67;95.22;100389.34;106133;1313;140391;-49
2022/10/10 05:54:35;;;;;;;4.10;2.30;;;;;;;6.70;95.18;100389.34;106468;1291;22167;-50
2022/10/10 05:57:02;;;;;;;4.70;2.40;;;;;;;6.74;94.91;100392.16;106309;1306;138071;-49
2022/10/10 05:59:29;;;;;;;6.20;2.30;;;;;;;6.78;94.97;100392.98;106458;1308;22105;-49
2022/10/10 06:01:56;;;;;;;9.30;2.80;;;;;;;6.83;95.01;100395.71;106361;1291;138220;-50
2022/10/10 06:04:22;;;;;;;9.90;3.00;;;;;;;6.89;94.96;100396.26;106521;1299;22153;-49
2022/10/10 06:06:49;;;;;;;;;;;;;;;6.94;94.62;100401.14;106725;1294;22437;-49
2022/10/10 06:09:16;;;;;;;6.40;2.40;;;;;;;6.95;94.39;100398.27;106612;1306;126209;-49
2022/10/10 06:11:43;;;;;;;5.80;2.80;;;;;;;6.99;93.92;100402.39;106703;1303;22219;-50
2022/10/10 06:14:09;;;;;;;5.00;2.60;;;;;;;7.02;93.90;100404.39;106595;1306;138770;-50
2022/10/10 06:16:38;;;;;;;;;;;;;;;7.06;93.73;100408.28;106718;1296;22354;-50
2022/10/10 06:19:05;;;;;;;5.30;2.40;;;;;;;7.10;93.66;100411.02;106736;1305;22153;-49
2022/10/10 06:21:31;;;;;;;;;;;;;;;7.16;93.76;100413.05;106601;1302;137676;-49
2022/10/10 06:23:58;;;;;;;7.10;2.30;;;;;;;7.23;93.61;100414.86;106716;1306;22198;-49
2022/10/10 06:26:25;;;;;;;5.90;2.60;;;;;;;7.30;93.50;100414.54;106582;1303;139335;-49
2022/10/10 06:28:51;;;;;;;4.10;2.60;;;;;;;7.37;93.21;100417.76;106720;1306;22234;-49
2022/10/10 06:31:18;;;;;;;4.30;2.50;;;;;;;7.43;93.02;100417.27;106710;1308;22203;-49
2022/10/10 06:33:45;;;;;;;10.80;2.30;;;;;;;7.49;92.66;100417.39;106585;1305;138414;-49
2022/10/10 06:36:12;;;;;;;;;;;;;;;7.54;92.18;100412.08;106722;1302;22356;-49
2022/10/10 06:38:39;;;;;;;8.10;2.60;;;;;;;7.57;91.64;100414.74;106580;1302;127361;-50
2022/10/10 06:41:06;;;;;;;7.40;3.10;;;;;;;7.60;91.64;100417.86;103004;1309;22521;-49
2022/10/10 06:43:33;;;;;;;;;;;;;;;7.67;91.74;100421.20;102253;1310;24343;-49
2022/10/10 06:45:59;;;;;;;6.40;2.40;;;;;;;7.73;91.40;100423.21;102247;1304;124085;-49
2022/10/10 06:48:28;;;;;;;5.70;2.40;;;;;;;7.78;91.23;100420.13;102323;1296;24418;-49
2022/10/10 06:51:03;;;;;;;7.30;3.40;;;;;;;7.83;91.23;100415.34;106312;1303;139205;-50
2022/10/10 06:53:31;;;;;;;9.60;2.50;;;;;;;7.89;91.04;100420.23;106488;1305;23338;-50
2022/10/10 06:55:57;;;;;;;6.70;2.60;;;;;;;7.96;90.88;100420.93;106523;1309;138468;-50
2022/10/10 06:58:25;;;;;;;;;;;;;;;8.01;90.59;100421.91;106716;1303;22352;-50
2022/10/10 07:00:53;;;;;;;5.00;2.50;;;;;;;8.06;90.31;100427.89;106691;1309;22182;-48
2022/10/10 07:03:20;;;;;;;8.90;4.70;;;;;;;8.11;90.33;100429.84;106570;1301;138851;-49
2022/10/10 07:05:54;;;;;;;5.00;2.40;;;;;;;8.20;90.46;100430.14;106698;1308;22122;-50
2022/10/10 07:08:22;;;;;;;6.80;2.40;;;;;;;8.31;90.45;100429.98;106440;1305;139159;-49
2022/10/10 07:10:48;;;;;;;4.40;2.90;;;;;;;8.40;89.58;100433.55;106708;1303;22938;-48
2022/10/10 07:13:15;;;;;;;4.00;2.30;;;;;;;8.43;89.06;100429.69;106643;1309;22342;-48
2022/10/10 07:15:42;;;;;;;7.40;1.90;;;;;;;8.45;89.05;100431.59;106456;1305;138021;-49
2022/10/10 07:18:09;;;;;;;6.60;3.20;;;;;;;8.48;88.94;100429.10;106678;1309;22216;-49
2022/10/10 07:20:36;;;;;;;8.10;2.20;;;;;;;8.52;88.91;100427.98;106593;1305;138603;-49
2022/10/10 07:23:03;;;;;;;6.10;2.30;;;;;;;8.56;88.36;100424.71;106536;1294;22436;-49
2022/10/10 07:25:29;;;;;;;;;;;;;;;8.59;88.09;100428.42;106760;1303;22346;-49
2022/10/10 07:27:57;;;;;;;6.90;2.00;;;;;;;8.62;88.06;100427.85;106598;1303;127042;-49
2022/10/10 07:30:24;;;;;;;4.70;2.00;;;;;;;8.64;88.09;100425.49;106684;1294;22231;-48
2022/10/10 07:32:54;;;;;;;6.70;2.10;;;;;;;8.69;88.05;100423.09;106577;1303;138801;-49
2022/10/10 07:35:22;;;;;;;5.70;2.90;;;;;;;8.76;87.85;100425.00;106712;1304;22201;-49
2022/10/10 07:37:52;;;;;;;3.00;1.70;;;;;;;8.82;87.30;100422.08;106611;1302;138578;-49
2022/10/10 07:40:19;;;;;;;4.60;2.10;;;;;;;8.88;87.29;100420.78;106702;1296;22230;-49
2022/10/10 07:42:45;;;;;;;4.70;2.20;;;;;;;8.95;87.47;100420.84;106707;1303;23428;-49
2022/10/10 07:45:12;;;;;;;;;;;;;;;9.05;87.15;100422.94;106588;1289;139312;-48
2022/10/10 07:47:39;;;;;;;3.90;2.10;;;;;;;9.14;86.99;100419.73;106696;1303;22187;-48
2022/10/10 07:50:06;;;;;;;;;;;;;;;9.23;86.41;100421.42;106616;1303;138171;-49
2022/10/10 07:52:34;;;;;;;4.60;2.20;;;;;;;9.33;85.82;100421.77;106707;1295;22365;-49
2022/10/10 07:55:01;;;;;;;5.30;2.50;;;;;;;9.41;85.03;100419.98;106685;1304;22200;-49
2022/10/10 07:57:28;;;;;;;8.00;2.60;;;;;;;9.48;84.42;100420.75;106560;1302;138617;-49
2022/10/10 07:59:55;;;;;;;5.90;1.60;;;;;;;9.54;84.22;100415.47;106734;1297;23467;-49
2022/10/10 08:02:21;;;;;;;4.20;2.10;;;;;;;9.64;83.81;100418.29;106605;1288;139273;-49
2022/10/10 08:04:48;;;;;;;;;;;;;;;9.74;83.06;100419.06;106740;1304;23275;-49
2022/10/10 08:07:15;;;;;;;6.80;1.80;;;;;;;9.83;81.99;100415.12;106731;1300;23564;-49
2022/10/10 08:09:42;;;;;;;;;;;;;;;9.92;80.89;100418.18;106620;1296;139018;-49
2022/10/10 08:12:08;;;;;;;12.10;1.80;;;;;;;9.99;80.37;100419.38;106738;1304;23535;-48
2022/10/10 08:14:35;;;;;;;;;;;;;;;10.05;79.77;100418.15;106659;1302;138495;-49
2022/10/10 08:17:02;;;;;;;3.00;1.80;;;;;;;10.11;79.58;100413.56;106721;1288;22184;-49
2022/10/10 08:19:29;;;;;;;10.40;1.60;;;;;;;10.21;77.94;100423.34;106583;1303;22089;-49
2022/10/10 08:21:56;;;;;;;3.40;1.20;;;;;;;10.26;77.29;100415.92;106628;1302;139335;-49
2022/10/10 08:24:22;;;;;;;;;;;;;;;10.37;75.91;100425.95;106744;1296;22369;-49
2022/10/10 08:26:49;;;;;;;6.50;1.10;;;;;;;10.43;76.14;100422.34;106650;1302;124481;-49
2022/10/10 08:29:17;;;;;;;3.50;1.50;;;;;;;10.51;74.76;100428.59;106576;1305;22184;-49
2022/10/10 08:31:45;;;;;;;3.80;1.20;;;;;;;10.59;73.72;100426.52;106758;1302;23041;-50
2022/10/10 08:34:12;;;;;;;4.20;1.60;;;;;;;10.64;73.54;100423.47;106495;1303;22128;-50
2022/10/10 08:36:38;;;;;;;3.10;1.50;;;;;;;10.69;73.84;100420.36;106715;1302;23146;-50
2022/10/10 08:39:06;;;;;;;3.10;1.20;;;;;;;10.75;73.15;100417.98;106646;1303;137968;-50
2022/10/10 08:41:41;;;;;;;3.80;1.30;;;;;;;10.81;72.49;100415.64;106727;1300;22098;-48
2022/10/10 08:44:29;;;;;;;11.60;2.80;;;;;;;10.86;71.90;100412.48;106488;1303;138616;-49
2022/10/10 08:47:03;;;;;;;4.50;1.50;;;;;;;10.95;71.13;100420.20;106740;1303;22212;-50
2022/10/10 08:49:34;;;;;;;3.20;1.20;;;;;;;11.01;71.37;100417.83;106596;1295;22242;-50
2022/10/10 08:52:30;;;;;;;4.10;1.30;;;;;;;11.08;71.85;100420.60;106476;1303;139601;-50
2022/10/10 08:54:58;;;;;;;2.60;1.10;;;;;;;11.18;71.28;100421.08;106709;1302;22234;-47
2022/10/10 08:57:29;;;;;;;2.60;1.10;;;;;;;11.25;69.93;100426.10;106485;1297;137581;-48
2022/10/10 09:00:04;;;;;;;5.20;1.20;;;;;;;11.29;69.08;100416.80;106516;1305;23144;-48
2022/10/10 09:02:38;;;;;;;2.30;1.50;;;;;;;11.29;69.23;100417.89;106483;1304;137597;-48
2022/10/10 09:05:39;;;;;;;5.70;1.30;;;;;;;11.32;69.16;100412.06;106711;1301;22119;-48
2022/10/10 09:08:48;;;;;;;5.80;3.60;;;;;;;11.40;68.94;100422.27;106638;1289;137633;-48
2022/10/10 09:11:14;;;;;;;;;;;;;;;11.50;68.42;100420.89;106303;1305;23116;-48
2022/10/10 09:13:47;;;;;;;3.70;1.30;;;;;;;11.55;68.16;100418.84;106234;1300;22196;-47
2022/10/10 09:16:32;;;;;;;3.30;1.40;;;;;;;11.58;67.94;100417.34;106244;1310;22284;-48
2022/10/10 09:19:15;;;;;;;3.60;1.60;;;;;;;11.65;68.24;100418.20;106148;1309;22172;-48
2022/10/10 09:21:44;;;;;;;3.60;1.30;;;;;;;11.70;67.94;100419.80;106014;1309;139374;-48
2022/10/10 09:24:19;;;;;;;;;;;;;;;11.74;67.77;100418.80;106064;1308;22379;-48
2022/10/10 09:26:48;;;;;;;2.20;1.30;;;;;;;11.79;67.17;100415.71;106126;1310;126035;-49
2022/10/10 09:29:21;;;;;;;4.20;0.90;;;;;;;11.83;65.59;100415.61;106021;1308;22990;-49
2022/10/10 09:31:50;;;;;;;3.00;1.40;;;;;;;11.87;63.83;100414.42;106132;1310;138614;-50
2022/10/10 09:34:19;;;;;;;1.80;0.90;;;;;;;11.91;64.39;100419.38;106047;1308;22297;-50
2022/10/10 09:36:46;;;;;;;1.60;0.90;;;;;;;12.01;64.00;100413.17;106264;1301;23263;-50
2022/10/10 09:39:13;;;;;;;;;;;;;;;12.10;61.79;100417.37;105737;1310;139636;-50
2022/10/10 09:41:45;;;;;;;4.10;1.10;;;;;;;12.13;61.04;100417.64;101782;1310;26143;-49
2022/10/10 09:44:13;;;;;;;3.60;0.90;;;;;;;12.17;60.79;100411.80;101674;1296;137630;-50
2022/10/10 09:46:39;;;;;;;1.60;0.70;;;;;;;12.18;59.89;100417.36;101584;1316;22913;-49
2022/10/10 09:49:06;;;;;;;;;;;;;;;12.14;58.75;100406.61;102253;1295;22467;-48
2022/10/10 09:51:33;;;;;;;1.80;1.10;;;;;;;12.17;58.40;100409.73;102270;1310;124526;-49
2022/10/10 09:53:59;;;;;;;2.70;0.80;;;;;;;12.18;59.50;100409.80;102300;1288;23390;-49
2022/10/10 09:56:27;;;;;;;;;;;;;;;12.21;59.12;100408.27;102163;1288;137858;-49
2022/10/10 09:58:54;;;;;;;3.60;1.20;;;;;;;12.24;58.74;100403.95;102204;1287;22523;-49
2022/10/10 10:01:26;;;;;;;3.90;1.50;;;;;;;12.27;58.16;100404.81;102237;1309;22595;-48
2022/10/10 10:04:06;;;;;;;1.60;0.70;;;;;;;12.31;57.68;100396.95;106599;1303;138594;-49
2022/10/10 10:06:52;;;;;;;3.20;1.10;;;;;;;12.33;57.71;100390.99;106718;1302;22809;-49
2022/10/10 10:09:20;;;;;;;1.20;0.90;;;;;;;12.38;57.56;100397.27;106470;1302;138733;-50
2022/10/10 10:11:53;;;;;;;3.10;1.20;;;;;;;12.34;57.89;100391.51;106727;1302;22892;-49
2022/10/10 10:14:49;;;;;;;4.30;1.20;;;;;;;12.41;57.89;100390.52;106554;1302;137881;-50
2022/10/10 10:17:17;;;;;;;1.60;0.80;;;;;;;12.46;56.29;100391.45;106211;1302;23311;-50
2022/10/10 10:19:45;;;;;;;2.20;0.90;;;;;;;12.47;55.58;100393.73;106123;1308;23646;-50
2022/10/10 10:22:38;;;;;;;3.00;1.00;;;;;;;12.48;55.61;100390.02;106196;1308;138767;-50
2022/10/10 10:25:33;;;;;;;3.30;1.20;;;;;;;12.50;55.89;100399.09;106287;1308;22172;-50
2022/10/10 10:28:09;;;;;;;4.40;1.20;;;;;;;12.53;56.25;100394.94;106182;1308;138229;-50
2022/10/10 10:30:39;;;;;;;4.50;1.00;;;;;;;12.57;55.98;100381.30;106286;1308;22367;-51
2022/10/10 10:33:44;;;;;;;4.70;1.10;;;;;;;12.63;55.76;100387.53;106195;1308;137874;-50
2022/10/10 10:36:38;;;;;;;2.30;0.80;;;;;;;12.66;55.56;100386.77;105524;1314;23109;-50
2022/10/10 10:39:26;;;;;;;2.30;0.80;;;;;;;12.67;54.91;100383.50;105546;1316;137779;-53
2022/10/10 10:41:58;;;;;;;2.80;1.00;;;;;;;12.69;54.55;100377.45;105618;1316;22213;-51
2022/10/10 10:44:27;;;;;;;3.10;0.90;;;;;;;12.70;54.89;100386.65;105113;1318;138141;-51
2022/10/10 10:47:19;;;;;;;2.50;1.00;;;;;;;12.74;54.20;100378.94;105633;1316;22328;-51
2022/10/10 10:50:09;;;;;;;1.70;0.90;;;;;;;12.77;54.11;100383.08;105651;1316;22964;-51
2022/10/10 10:52:42;;;;;;;5.60;1.50;;;;;;;12.80;53.34;100377.12;104986;1322;23031;-53
2022/10/10 10:55:24;;;;;;;1.50;0.90;;;;;;;12.84;53.73;100378.27;105585;1314;22249;-53
2022/10/10 10:58:06;;;;;;;1.70;0.80;;;;;;;12.83;52.69;100359.33;105409;1316;139251;-53
2022/10/10 11:01:08;;;;;;;3.10;1.10;;;;;;;12.95;52.02;100374.33;105662;1314;22217;-53
2022/10/10 11:03:59;;;;;;;2.10;0.80;;;;;;;13.02;50.49;100376.86;105353;1311;137916;-54
2022/10/10 11:07:14;;;;;;;3.10;1.00;;;;;;;13.03;49.95;100374.38;105668;1314;22162;-53
2022/10/10 11:09:55;;;;;;;1.90;0.70;;;;;;;13.04;50.21;100378.16;105565;1314;137739;-53
2022/10/10 11:12:27;;;;;;;3.30;0.90;;;;;;;13.08;49.67;100382.82;105867;1310;23041;-53
2022/10/10 11:15:00;;;;;;;2.50;0.80;;;;;;;13.12;49.18;100379.36;105958;1311;138192;-53
2022/10/10 11:17:37;;;;;;;4.10;1.00;;;;;;;13.13;49.22;100378.70;106083;1310;22180;-53
2022/10/10 11:20:33;;;;;;;3.80;1.30;;;;;;;13.15;49.86;100381.14;106123;1301;137691;-53
2022/10/10 11:23:10;;;;;;;2.80;0.90;;;;;;;13.21;49.56;100387.18;106055;1303;22342;-53
2022/10/10 11:25:46;;;;;;;4.30;1.00;;;;;;;13.24;48.18;100381.42;106038;1310;22196;-53
2022/10/10 11:28:19;;;;;;;3.10;1.20;;;;;;;13.23;47.06;100375.05;106002;1310;139114;-52
2022/10/10 11:30:50;;;;;;;3.80;0.80;;;;;;;13.20;47.71;100377.15;106398;1305;22150;-53
2022/10/10 11:33:21;;;;;;;2.10;0.90;;;;;;;13.18;48.27;100378.09;106478;1302;137709;-51
2022/10/10 11:36:00;;;;;;;2.30;0.90;;;;;;;13.13;48.04;100372.66;106728;1304;22834;-52
2022/10/10 11:38:33;;;;;;;1.30;0.80;;;;;;;13.11;48.39;100378.48;106474;1302;138016;-49
2022/10/10 11:41:02;;;;;;;1.40;0.80;;;;;;;13.11;49.19;100383.36;106626;1296;22178;-53
2022/10/10 11:43:30;;;;;;;2.20;1.10;;;;;;;13.14;47.03;100378.84;106698;1303;22218;-52
2022/10/10 11:46:42;;;;;;;3.30;1.00;;;;;;;13.13;46.93;100377.95;106650;1302;138398;-53